Time;durP1;ratioP1;P1;durP2;ratioP2;P2;SDS_P1;SDS_P2;PMS_P1;PMS_P2;Temp;Humidity;BMP_temperature;BMP_pressure;BME280_temperature;BME280_humidity;BME280_pressure;Samples;Min_cycle;Max_cycle;Signal;HPM_P1;HPM_P2
2023/03/16 00:00:28;;;;;;;20.17;9.27;;;;;;;;;;4974857;28;20023;-74
2023/03/16 00:02:53;;;;;;;18.80;8.47;;;;;;;;;;4972732;28;20037;-74
2023/03/16 00:05:19;;;;;;;20.23;9.63;;;;;;;;;;4973438;28;20038;-74
2023/03/16 00:07:44;;;;;;;18.37;7.93;;;;;;;;;;4973137;28;20081;-76
2023/03/16 00:10:11;;;;;;;17.70;9.23;;;;;;;;;;4969947;28;20031;-74
2023/03/16 00:12:37;;;;;;;16.03;8.43;;;;;;;;;;4968324;28;20554;-75
2023/03/16 00:15:03;;;;;;;21.07;8.70;;;;;;;;;;4972623;28;20046;-75
2023/03/16 00:17:29;;;;;;;21.83;9.57;;;;;;;;;;4956110;28;20074;-75
2023/03/16 00:19:56;;;;;;;19.63;10.40;;;;;;;;;;4973937;28;20019;-75
2023/03/16 00:22:27;;;;;;;19.17;8.60;;;;;;;;;;4972459;28;20035;-76
2023/03/16 00:24:53;;;;;;;18.17;8.87;;;;;;;;;;4973693;28;20089;-74
2023/03/16 00:27:21;;;;;;;19.87;8.13;;;;;;;;;;4972226;28;20038;-75
2023/03/16 00:29:48;;;;;;;20.73;8.70;;;;;;;;;;4972661;28;20178;-76
2023/03/16 00:32:17;;;;;;;18.77;8.53;;;;;;;;;;4972465;28;20054;-74
2023/03/16 00:34:44;;;;;;;16.43;7.77;;;;;;;;;;4974546;28;20033;-74
2023/03/16 00:37:12;;;;;;;16.13;7.97;;;;;;;;;;4973480;28;20095;-76
2023/03/16 00:39:39;;;;;;;16.53;9.23;;;;;;;;;;4973687;28;20023;-74
2023/03/16 00:42:05;;;;;;;14.67;7.13;;;;;;;;;;4974030;28;20459;-75
2023/03/16 00:44:31;;;;;;;17.07;8.17;;;;;;;;;;4975273;28;20057;-75
2023/03/16 00:46:57;;;;;;;16.53;8.37;;;;;;;;;;4972406;28;20105;-75
2023/03/16 00:49:23;;;;;;;16.43;8.53;;;;;;;;;;4973712;28;20134;-74
2023/03/16 00:51:48;;;;;;;17.17;7.87;;;;;;;;;;4972726;28;20058;-75
2023/03/16 00:54:14;;;;;;;19.77;9.07;;;;;;;;;;4974700;28;20078;-74
2023/03/16 00:56:41;;;;;;;15.17;7.53;;;;;;;;;;4973330;28;20122;-74
2023/03/16 00:59:07;;;;;;;15.90;7.70;;;;;;;;;;4971670;28;20038;-75
2023/03/16 01:01:33;;;;;;;24.70;8.70;;;;;;;;;;4973982;28;20023;-75
2023/03/16 01:03:59;;;;;;;20.83;8.90;;;;;;;;;;4973162;28;20030;-75
2023/03/16 01:06:25;;;;;;;17.70;7.67;;;;;;;;;;4971331;28;20379;-75
2023/03/16 01:08:51;;;;;;;16.73;9.07;;;;;;;;;;4972999;28;20105;-75
2023/03/16 01:11:19;;;;;;;17.83;8.00;;;;;;;;;;4970703;28;20029;-75
2023/03/16 01:13:48;;;;;;;17.20;7.93;;;;;;;;;;4971542;28;20103;-75
2023/03/16 01:16:22;;;;;;;17.93;7.90;;;;;;;;;;4971548;28;20104;-75
2023/03/16 01:18:48;;;;;;;21.43;8.63;;;;;;;;;;4971664;28;20018;-75
2023/03/16 01:21:13;;;;;;;15.73;8.17;;;;;;;;;;4971570;28;20572;-75
2023/03/16 01:23:40;;;;;;;15.03;7.43;;;;;;;;;;4973339;28;20033;-75
2023/03/16 01:26:07;;;;;;;16.87;7.57;;;;;;;;;;4971943;28;20014;-75
2023/03/16 01:28:33;;;;;;;16.33;6.87;;;;;;;;;;4972526;28;20337;-75
2023/03/16 01:31:08;;;;;;;14.10;7.50;;;;;;;;;;4975206;28;20034;-75
2023/03/16 01:33:35;;;;;;;18.10;7.70;;;;;;;;;;4974516;28;20023;-75
2023/03/16 01:36:13;;;;;;;16.00;7.80;;;;;;;;;;4972776;28;20434;-75
2023/03/16 01:38:38;;;;;;;18.23;7.97;;;;;;;;;;4973441;28;20452;-75
2023/03/16 01:41:04;;;;;;;14.60;7.43;;;;;;;;;;4974404;28;20030;-74
2023/03/16 01:43:33;;;;;;;17.67;7.63;;;;;;;;;;4983973;28;20110;-74
2023/03/16 01:46:04;;;;;;;17.73;9.83;;;;;;;;;;4974132;28;20172;-75
2023/03/16 01:48:54;;;;;;;17.45;8.40;;;;;;;;;;4975094;28;20054;-74
2023/03/16 01:51:43;;;;;;;17.70;8.27;;;;;;;;;;4973434;28;20073;-75
2023/03/16 01:54:27;;;;;;;16.63;7.20;;;;;;;;;;4972124;28;20041;-76
2023/03/16 01:56:58;;;;;;;15.23;8.27;;;;;;;;;;4971895;28;20153;-76
2023/03/16 01:59:30;;;;;;;18.80;8.10;;;;;;;;;;4972538;28;20118;-75
2023/03/16 02:01:57;;;;;;;16.92;8.18;;;;;;;;;;4969050;28;20066;-76
2023/03/16 02:04:45;;;;;;;15.37;8.03;;;;;;;;;;4970053;28;20031;-76
2023/03/16 02:07:15;;;;;;;18.33;9.00;;;;;;;;;;4972350;28;20081;-76
2023/03/16 02:09:47;;;;;;;18.80;7.60;;;;;;;;;;4970921;28;20030;-76
2023/03/16 02:12:18;;;;;;;19.07;8.83;;;;;;;;;;4967278;28;20088;-75
2023/03/16 02:14:48;;;;;;;17.13;8.47;;;;;;;;;;4986899;28;20253;-75
2023/03/16 02:17:16;;;;;;;19.13;7.97;;;;;;;;;;4970079;28;20299;-75
2023/03/16 02:20:07;;;;;;;19.10;8.67;;;;;;;;;;4972309;28;20050;-75
2023/03/16 02:22:35;;;;;;;17.80;8.27;;;;;;;;;;4969858;28;20034;-75
2023/03/16 02:25:01;;;;;;;18.23;7.80;;;;;;;;;;4971052;28;20156;-75
2023/03/16 02:27:36;;;;;;;18.87;7.67;;;;;;;;;;4971496;28;20058;-75
2023/03/16 02:30:03;;;;;;;14.00;7.27;;;;;;;;;;4971791;28;20089;-75
2023/03/16 02:32:31;;;;;;;17.13;7.73;;;;;;;;;;4973355;28;20034;-75
2023/03/16 02:34:59;;;;;;;16.93;8.17;;;;;;;;;;4973006;28;20037;-74
2023/03/16 02:37:25;;;;;;;17.57;7.87;;;;;;;;;;4984447;28;20185;-74
2023/03/16 02:39:51;;;;;;;15.20;7.77;;;;;;;;;;4987348;28;20018;-76
2023/03/16 02:42:20;;;;;;;14.90;8.20;;;;;;;;;;4977474;28;20201;-74
2023/03/16 02:44:51;;;;;;;18.63;8.43;;;;;;;;;;4973136;28;20023;-74
2023/03/16 02:47:27;;;;;;;20.53;8.70;;;;;;;;;;4971821;28;20050;-75
2023/03/16 02:49:53;;;;;;;17.33;8.17;;;;;;;;;;4973156;28;20185;-75
2023/03/16 02:52:18;;;;;;;26.97;9.97;;;;;;;;;;4972548;28;20476;-76
2023/03/16 02:54:44;;;;;;;20.50;8.87;;;;;;;;;;4974555;28;20097;-75
2023/03/16 02:57:09;;;;;;;23.87;9.37;;;;;;;;;;4971553;28;20015;-75
2023/03/16 02:59:35;;;;;;;17.97;9.13;;;;;;;;;;4973527;28;20025;-75
2023/03/16 03:02:00;;;;;;;17.03;8.20;;;;;;;;;;4973552;28;20494;-74
2023/03/16 03:04:26;;;;;;;22.43;9.03;;;;;;;;;;4977044;28;20475;-75
2023/03/16 03:06:51;;;;;;;19.80;8.30;;;;;;;;;;4976556;28;20014;-76
2023/03/16 03:09:18;;;;;;;17.30;8.70;;;;;;;;;;4971448;28;20037;-75
2023/03/16 03:11:45;;;;;;;17.27;8.30;;;;;;;;;;4970751;28;20041;-75
2023/03/16 03:14:11;;;;;;;17.47;9.30;;;;;;;;;;4970519;28;20046;-75
2023/03/16 03:16:36;;;;;;;12.43;7.53;;;;;;;;;;4969665;28;20058;-75
2023/03/16 03:19:02;;;;;;;16.53;7.13;;;;;;;;;;4970187;28;20029;-75
2023/03/16 03:21:27;;;;;;;16.17;7.03;;;;;;;;;;4969539;28;20033;-74
2023/03/16 03:23:53;;;;;;;17.20;8.47;;;;;;;;;;4969345;28;20516;-76
2023/03/16 03:26:19;;;;;;;16.67;7.60;;;;;;;;;;4970361;28;20023;-75
2023/03/16 03:28:45;;;;;;;17.57;7.80;;;;;;;;;;4970275;28;20372;-75
2023/03/16 03:31:15;;;;;;;17.30;7.97;;;;;;;;;;4970471;28;20029;-75
2023/03/16 03:33:40;;;;;;;55.30;10.77;;;;;;;;;;4968947;28;20158;-75
2023/03/16 03:36:06;;;;;;;19.57;8.63;;;;;;;;;;4965706;28;20427;-75
2023/03/16 03:38:32;;;;;;;21.47;8.57;;;;;;;;;;4967955;28;20031;-75
2023/03/16 03:41:00;;;;;;;17.70;8.17;;;;;;;;;;4970200;28;20133;-75
2023/03/16 03:43:26;;;;;;;20.10;9.27;;;;;;;;;;4970456;28;20331;-75
2023/03/16 03:45:56;;;;;;;19.67;8.53;;;;;;;;;;4965665;28;20119;-75
2023/03/16 03:48:23;;;;;;;17.70;8.07;;;;;;;;;;4966243;28;20034;-75
2023/03/16 03:50:48;;;;;;;20.43;9.70;;;;;;;;;;4968682;28;20436;-75
2023/03/16 03:53:14;;;;;;;15.90;8.23;;;;;;;;;;4970256;28;20049;-75
2023/03/16 03:55:39;;;;;;;19.20;9.43;;;;;;;;;;4966356;28;20035;-76
2023/03/16 03:58:05;;;;;;;21.50;9.13;;;;;;;;;;4963661;28;20034;-74
2023/03/16 04:00:30;;;;;;;21.17;8.97;;;;;;;;;;4966133;28;20027;-75
2023/03/16 04:02:56;;;;;;;18.77;9.47;;;;;;;;;;4968439;28;20105;-75
2023/03/16 04:05:21;;;;;;;18.03;7.87;;;;;;;;;;4965935;28;20023;-75
2023/03/16 04:07:49;;;;;;;19.87;8.50;;;;;;;;;;4975633;28;20025;-75
2023/03/16 04:10:15;;;;;;;16.50;8.70;;;;;;;;;;4966801;28;20031;-75
2023/03/16 04:12:40;;;;;;;44.07;11.73;;;;;;;;;;4969419;28;20466;-74
2023/03/16 04:15:06;;;;;;;20.87;8.87;;;;;;;;;;4957068;28;20527;-73
2023/03/16 04:17:33;;;;;;;17.07;7.93;;;;;;;;;;4972359;28;20402;-74
2023/03/16 04:19:58;;;;;;;18.60;8.93;;;;;;;;;;4978139;28;20029;-73
2023/03/16 04:22:24;;;;;;;20.77;8.50;;;;;;;;;;4976708;28;20030;-74
2023/03/16 04:24:51;;;;;;;18.93;8.30;;;;;;;;;;4977137;28;20077;-74
2023/03/16 04:27:17;;;;;;;18.30;8.43;;;;;;;;;;4973078;28;20050;-75
2023/03/16 04:29:42;;;;;;;22.27;8.33;;;;;;;;;;4971354;28;20023;-74
2023/03/16 04:32:08;;;;;;;16.30;7.50;;;;;;;;;;4968755;28;20456;-75
2023/03/16 04:34:34;;;;;;;19.63;7.23;;;;;;;;;;4952402;28;20039;-75
2023/03/16 04:37:01;;;;;;;23.13;8.57;;;;;;;;;;4968421;28;20047;-75
2023/03/16 04:39:26;;;;;;;15.53;7.90;;;;;;;;;;4968501;28;20526;-74
2023/03/16 04:41:52;;;;;;;22.00;8.33;;;;;;;;;;4968746;28;20035;-73
2023/03/16 04:44:17;;;;;;;18.20;9.47;;;;;;;;;;4968078;28;20031;-74
2023/03/16 04:46:43;;;;;;;21.20;8.83;;;;;;;;;;4973176;28;20045;-73
2023/03/16 04:49:09;;;;;;;18.27;8.17;;;;;;;;;;4973686;28;20026;-74
2023/03/16 04:51:36;;;;;;;20.93;9.37;;;;;;;;;;4974085;28;20039;-74
2023/03/16 04:54:03;;;;;;;17.63;9.13;;;;;;;;;;4973727;28;20104;-74
2023/03/16 04:56:29;;;;;;;16.93;8.40;;;;;;;;;;4974199;28;20038;-74
2023/03/16 04:58:55;;;;;;;20.93;9.87;;;;;;;;;;4972130;28;20085;-74
2023/03/16 05:01:21;;;;;;;16.30;9.00;;;;;;;;;;4971897;28;20106;-74
2023/03/16 05:03:48;;;;;;;21.90;10.27;;;;;;;;;;4971760;28;20138;-74
2023/03/16 05:06:14;;;;;;;20.70;9.23;;;;;;;;;;4971713;28;20058;-74
2023/03/16 05:08:40;;;;;;;17.10;7.57;;;;;;;;;;4971964;28;20031;-76
2023/03/16 05:11:05;;;;;;;21.40;9.07;;;;;;;;;;4973367;28;20124;-75
2023/03/16 05:13:31;;;;;;;18.93;9.20;;;;;;;;;;4971584;28;20041;-73
2023/03/16 05:15:56;;;;;;;15.87;8.50;;;;;;;;;;4973007;28;20218;-75
2023/03/16 05:18:22;;;;;;;15.83;8.20;;;;;;;;;;4972483;28;20031;-74
2023/03/16 05:20:51;;;;;;;22.17;9.20;;;;;;;;;;4973334;28;20027;-74
2023/03/16 05:23:16;;;;;;;21.30;9.30;;;;;;;;;;4971123;28;20030;-73
2023/03/16 05:25:42;;;;;;;22.60;9.07;;;;;;;;;;4972635;28;20097;-74
2023/03/16 05:28:08;;;;;;;18.67;9.93;;;;;;;;;;4971015;28;20117;-74
2023/03/16 05:30:33;;;;;;;17.53;9.30;;;;;;;;;;4968833;28;20126;-74
2023/03/16 05:32:59;;;;;;;20.67;10.50;;;;;;;;;;4970655;28;20130;-76
2023/03/16 05:35:24;;;;;;;21.10;9.50;;;;;;;;;;4971262;28;20075;-75
2023/03/16 05:37:50;;;;;;;17.90;9.47;;;;;;;;;;4971577;28;20426;-75
2023/03/16 05:40:16;;;;;;;19.00;9.47;;;;;;;;;;4972842;28;20514;-74
2023/03/16 05:42:43;;;;;;;22.37;10.33;;;;;;;;;;4970769;28;20031;-75
2023/03/16 05:45:10;;;;;;;23.33;10.07;;;;;;;;;;4970449;28;20027;-75
2023/03/16 05:47:36;;;;;;;24.30;10.87;;;;;;;;;;4972286;28;20048;-75
2023/03/16 05:50:03;;;;;;;22.60;9.57;;;;;;;;;;4972691;28;20418;-76
2023/03/16 05:52:28;;;;;;;22.80;10.40;;;;;;;;;;4967989;28;20039;-74
2023/03/16 05:54:54;;;;;;;21.53;10.87;;;;;;;;;;4971538;28;20035;-75
2023/03/16 05:57:19;;;;;;;24.87;10.70;;;;;;;;;;4971715;28;20046;-74
2023/03/16 05:59:45;;;;;;;24.80;10.90;;;;;;;;;;4970053;28;20030;-75
2023/03/16 06:02:10;;;;;;;29.73;10.13;;;;;;;;;;4969940;28;20037;-74
2023/03/16 06:04:36;;;;;;;22.67;9.80;;;;;;;;;;4967940;28;20070;-75
2023/03/16 06:07:01;;;;;;;20.37;10.53;;;;;;;;;;4966527;28;20034;-74
2023/03/16 06:09:27;;;;;;;18.67;9.17;;;;;;;;;;4969315;28;20117;-74
2023/03/16 06:11:52;;;;;;;20.40;10.40;;;;;;;;;;4965753;28;20034;-76
2023/03/16 06:14:18;;;;;;;24.23;9.70;;;;;;;;;;4969839;28;20038;-74
2023/03/16 06:16:44;;;;;;;21.60;10.00;;;;;;;;;;4970818;28;20034;-75
2023/03/16 06:19:09;;;;;;;25.07;10.47;;;;;;;;;;4976055;28;20034;-73
2023/03/16 06:21:35;;;;;;;26.90;10.70;;;;;;;;;;4982995;28;20042;-77
2023/03/16 06:24:01;;;;;;;19.37;10.40;;;;;;;;;;4967631;28;20452;-77
2023/03/16 06:26:26;;;;;;;20.60;9.10;;;;;;;;;;4970435;28;20053;-77
2023/03/16 06:28:52;;;;;;;19.10;9.93;;;;;;;;;;4971506;28;20546;-78
2023/03/16 06:31:17;;;;;;;28.13;9.33;;;;;;;;;;4967060;28;20049;-77
2023/03/16 06:33:43;;;;;;;24.03;10.27;;;;;;;;;;4955971;28;20952;-76
2023/03/16 06:36:09;;;;;;;23.17;11.17;;;;;;;;;;4993886;28;20435;-76
2023/03/16 06:38:34;;;;;;;21.67;10.20;;;;;;;;;;4977403;28;20438;-74
2023/03/16 06:41:00;;;;;;;20.77;9.90;;;;;;;;;;4975360;28;20365;-76
2023/03/16 06:43:26;;;;;;;25.77;10.30;;;;;;;;;;4976687;28;20027;-76
2023/03/16 06:45:52;;;;;;;21.07;10.13;;;;;;;;;;4992882;28;20383;-76
2023/03/16 06:48:18;;;;;;;19.53;9.77;;;;;;;;;;4968777;28;20082;-75
2023/03/16 06:50:52;;;;;;;24.57;10.53;;;;;;;;;;4964757;28;20039;-78
2023/03/16 06:53:17;;;;;;;22.13;9.23;;;;;;;;;;4964779;28;20472;-76
2023/03/16 06:55:44;;;;;;;29.60;11.23;;;;;;;;;;4972875;28;20089;-78
2023/03/16 06:58:10;;;;;;;24.00;10.33;;;;;;;;;;4968098;28;20144;-74
2023/03/16 07:00:37;;;;;;;24.57;9.90;;;;;;;;;;4964425;28;20038;-78
2023/03/16 07:03:03;;;;;;;19.60;9.80;;;;;;;;;;4967773;28;20038;-77
2023/03/16 07:05:29;;;;;;;18.73;9.47;;;;;;;;;;4961297;28;20076;-79
2023/03/16 07:07:54;;;;;;;20.43;9.67;;;;;;;;;;4946386;28;20455;-76
2023/03/16 07:10:20;;;;;;;27.30;12.07;;;;;;;;;;4957983;28;20038;-74
2023/03/16 07:12:46;;;;;;;26.27;11.13;;;;;;;;;;4961379;28;20026;-77
2023/03/16 07:15:12;;;;;;;15.33;8.17;;;;;;;;;;4958825;28;20050;-76
2023/03/16 07:17:38;;;;;;;20.73;9.97;;;;;;;;;;4959408;28;20042;-74
2023/03/16 07:20:08;;;;;;;23.13;9.90;;;;;;;;;;4960678;28;20497;-77
2023/03/16 07:22:34;;;;;;;27.77;10.90;;;;;;;;;;4965869;28;20035;-76
2023/03/16 07:25:00;;;;;;;19.60;10.60;;;;;;;;;;4965502;28;20046;-75
2023/03/16 07:27:28;;;;;;;21.93;10.40;;;;;;;;;;4966979;28;20026;-77
2023/03/16 07:29:54;;;;;;;18.37;9.23;;;;;;;;;;4961716;28;20058;-76
2023/03/16 07:32:21;;;;;;;21.90;10.20;;;;;;;;;;4980628;28;20030;-76
2023/03/16 07:34:47;;;;;;;21.00;9.87;;;;;;;;;;4964389;28;20092;-77
2023/03/16 07:37:14;;;;;;;19.63;10.33;;;;;;;;;;4965194;28;20531;-74
2023/03/16 07:39:41;;;;;;;39.23;12.53;;;;;;;;;;4965445;28;20973;-78
2023/03/16 07:42:07;;;;;;;24.27;11.13;;;;;;;;;;4947321;28;20031;-77
2023/03/16 07:44:33;;;;;;;24.10;11.63;;;;;;;;;;4957279;28;20046;-76
2023/03/16 07:46:58;;;;;;;19.40;8.87;;;;;;;;;;4958411;28;20031;-74
2023/03/16 07:49:26;;;;;;;19.00;10.87;;;;;;;;;;4961673;28;20035;-75
2023/03/16 07:51:52;;;;;;;24.30;12.43;;;;;;;;;;4958994;28;20436;-73
2023/03/16 07:54:17;;;;;;;22.60;11.33;;;;;;;;;;4960352;28;20054;-74
2023/03/16 07:56:44;;;;;;;22.40;9.63;;;;;;;;;;4977514;28;20599;-75
2023/03/16 07:59:11;;;;;;;20.30;9.00;;;;;;;;;;4962935;28;20041;-75
2023/03/16 08:01:36;;;;;;;23.67;10.07;;;;;;;;;;4956829;28;20407;-78
2023/03/16 08:04:02;;;;;;;18.40;8.43;;;;;;;;;;4963342;28;20074;-75
2023/03/16 08:06:27;;;;;;;17.57;8.97;;;;;;;;;;4971068;28;20041;-74
2023/03/16 08:08:53;;;;;;;17.93;9.67;;;;;;;;;;4967440;28;20039;-75
2023/03/16 08:11:22;;;;;;;19.17;9.53;;;;;;;;;;4961958;28;20125;-73
2023/03/16 08:13:53;;;;;;;19.47;9.23;;;;;;;;;;4971193;28;20336;-76
2023/03/16 08:16:26;;;;;;;18.70;9.03;;;;;;;;;;4956805;28;20079;-75
2023/03/16 08:18:55;;;;;;;18.97;9.70;;;;;;;;;;4963115;28;20035;-79
2023/03/16 08:21:22;;;;;;;18.67;8.43;;;;;;;;;;4961218;28;20057;-73
2023/03/16 08:23:49;;;;;;;20.00;9.70;;;;;;;;;;4968350;28;20108;-74
2023/03/16 08:26:19;;;;;;;19.80;9.17;;;;;;;;;;4963888;28;20038;-78
2023/03/16 08:28:50;;;;;;;16.27;8.77;;;;;;;;;;4967778;28;20035;-78
2023/03/16 08:31:19;;;;;;;21.20;9.60;;;;;;;;;;4964267;28;20039;-77
2023/03/16 08:33:48;;;;;;;24.40;9.73;;;;;;;;;;4963971;28;20575;-73
2023/03/16 08:36:16;;;;;;;18.10;9.07;;;;;;;;;;4966894;28;20059;-74
2023/03/16 08:38:46;;;;;;;22.67;9.43;;;;;;;;;;4966886;28;20162;-77
2023/03/16 08:41:12;;;;;;;18.83;8.33;;;;;;;;;;4967106;28;20474;-76
2023/03/16 08:43:38;;;;;;;14.40;7.73;;;;;;;;;;4968413;28;20030;-74
2023/03/16 08:46:05;;;;;;;17.93;7.17;;;;;;;;;;4966385;28;20125;-76
2023/03/16 08:48:32;;;;;;;18.67;7.67;;;;;;;;;;4964078;28;20023;-75
2023/03/16 08:51:02;;;;;;;14.27;8.37;;;;;;;;;;4962070;28;20074;-77
2023/03/16 08:53:29;;;;;;;20.13;7.93;;;;;;;;;;4963882;28;20034;-75
2023/03/16 08:56:05;;;;;;;15.30;6.27;;;;;;;;;;4969949;28;20041;-78
2023/03/16 08:58:33;;;;;;;17.87;6.53;;;;;;;;;;4963015;28;20084;-78
2023/03/16 09:01:04;;;;;;;16.57;7.17;;;;;;;;;;4960626;28;20051;-76
2023/03/16 09:03:35;;;;;;;11.70;6.87;;;;;;;;;;4961997;28;20030;-76
2023/03/16 09:06:07;;;;;;;13.63;6.67;;;;;;;;;;4969155;28;20049;-77
2023/03/16 09:08:33;;;;;;;14.18;6.55;;;;;;;;;;4974732;28;20062;-77
2023/03/16 09:11:06;;;;;;;20.00;7.40;;;;;;;;;;4974511;28;20035;-76
2023/03/16 09:13:34;;;;;;;18.33;7.10;;;;;;;;;;4981333;28;20824;-77
2023/03/16 09:16:00;;;;;;;13.57;6.80;;;;;;;;;;4979771;28;20026;-77
2023/03/16 09:18:27;;;;;;;15.97;7.97;;;;;;;;;;4977071;28;20031;-76
2023/03/16 09:21:00;;;;;;;17.70;8.27;;;;;;;;;;4973992;28;20030;-76
2023/03/16 09:23:28;;;;;;;12.80;6.90;;;;;;;;;;4969765;28;20033;-77
2023/03/16 09:26:00;;;;;;;22.53;8.37;;;;;;;;;;4969144;28;20058;-77
2023/03/16 09:28:28;;;;;;;11.73;7.47;;;;;;;;;;4971893;28;20037;-76
2023/03/16 09:30:56;;;;;;;13.50;5.60;;;;;;;;;;4961221;28;20188;-77
2023/03/16 09:33:24;;;;;;;11.57;6.13;;;;;;;;;;4975098;28;20031;-75
2023/03/16 09:35:51;;;;;;;15.17;6.83;;;;;;;;;;4965165;28;20575;-73
2023/03/16 09:38:18;;;;;;;16.37;6.63;;;;;;;;;;4945684;28;20142;-77
2023/03/16 09:40:47;;;;;;;18.90;6.80;;;;;;;;;;4965590;28;20382;-77
2023/03/16 09:43:37;;;;;;;14.33;6.80;;;;;;;;;;4962991;28;20042;-75
2023/03/16 09:46:50;;;;;;;12.87;6.03;;;;;;;;;;4963987;28;20041;-75
2023/03/16 09:49:19;;;;;;;18.70;6.37;;;;;;;;;;4964754;28;20082;-76
2023/03/16 09:52:37;;;;;;;20.13;6.03;;;;;;;;;;4964256;28;20562;-77
2023/03/16 09:55:21;;;;;;;11.47;5.97;;;;;;;;;;4963569;28;20058;-76
2023/03/16 09:57:50;;;;;;;14.07;5.50;;;;;;;;;;4963104;28;20023;-77
2023/03/16 10:00:23;;;;;;;11.80;5.50;;;;;;;;;;4959393;28;20687;-76
2023/03/16 10:03:00;;;;;;;13.67;5.73;;;;;;;;;;4965789;28;20145;-74
2023/03/16 10:05:29;;;;;;;11.70;3.67;;;;;;;;;;4955073;28;20531;-75
2023/03/16 10:08:07;;;;;;;10.73;4.47;;;;;;;;;;4962216;28;20038;-76
2023/03/16 10:11:06;;;;;;;11.10;5.10;;;;;;;;;;4961423;28;20462;-76
2023/03/16 10:14:03;;;;;;;16.83;5.67;;;;;;;;;;4958677;28;20414;-76
2023/03/16 10:16:45;;;;;;;20.93;6.93;;;;;;;;;;4963812;28;20133;-77
2023/03/16 10:19:45;;;;;;;12.57;5.27;;;;;;;;;;4962311;28;20121;-77
2023/03/16 10:22:27;;;;;;;15.00;4.10;;;;;;;;;;4952041;28;20062;-76
2023/03/16 10:25:14;;;;;;;12.27;4.33;;;;;;;;;;4959660;28;20100;-76
2023/03/16 10:27:43;;;;;;;15.03;3.23;;;;;;;;;;4978133;28;20057;-77
2023/03/16 10:30:27;;;;;;;14.47;3.70;;;;;;;;;;4958871;28;20040;-77
2023/03/16 10:32:55;;;;;;;11.17;3.90;;;;;;;;;;4960940;28;20034;-76
2023/03/16 10:35:33;;;;;;;7.67;3.30;;;;;;;;;;4960913;28;20089;-77
2023/03/16 10:37:59;;;;;;;11.83;4.27;;;;;;;;;;4964668;28;20057;-76
2023/03/16 10:40:25;;;;;;;9.70;3.70;;;;;;;;;;4962514;28;20105;-75
2023/03/16 10:42:52;;;;;;;12.47;4.33;;;;;;;;;;4964384;28;20082;-76
2023/03/16 10:45:33;;;;;;;13.07;4.37;;;;;;;;;;4964317;28;20034;-78
2023/03/16 10:48:15;;;;;;;8.07;3.75;;;;;;;;;;4972550;28;20466;-75
2023/03/16 10:50:43;;;;;;;15.55;4.00;;;;;;;;;;4959336;28;20027;-76
2023/03/16 10:53:25;;;;;;;12.37;4.23;;;;;;;;;;4961469;28;20026;-76
2023/03/16 10:55:58;;;;;;;10.60;3.33;;;;;;;;;;4960265;28;20030;-77
2023/03/16 10:58:28;;;;;;;6.57;3.20;;;;;;;;;;4960077;28;20060;-75
2023/03/16 11:00:54;;;;;;;19.93;3.60;;;;;;;;;;4961878;28;20042;-76
2023/03/16 11:03:26;;;;;;;10.63;4.20;;;;;;;;;;4960376;28;20019;-77
2023/03/16 11:06:03;;;;;;;10.40;3.10;;;;;;;;;;4961009;28;20376;-76
2023/03/16 11:08:40;;;;;;;8.37;2.63;;;;;;;;;;4961707;28;20065;-78
2023/03/16 11:11:26;;;;;;;18.40;3.73;;;;;;;;;;4963449;28;20031;-77
2023/03/16 11:13:58;;;;;;;15.73;2.97;;;;;;;;;;4960899;28;20499;-79
2023/03/16 11:16:32;;;;;;;13.73;3.43;;;;;;;;;;4960172;28;20061;-76
2023/03/16 11:19:04;;;;;;;11.87;3.90;;;;;;;;;;4961635;28;20031;-77
2023/03/16 11:21:40;;;;;;;6.33;3.60;;;;;;;;;;4947103;28;20031;-76
2023/03/16 11:24:16;;;;;;;9.03;3.57;;;;;;;;;;4964225;28;20117;-77
2023/03/16 11:26:43;;;;;;;15.57;3.43;;;;;;;;;;4965063;28;20136;-78
2023/03/16 11:29:26;;;;;;;17.70;3.20;;;;;;;;;;4960049;28;20035;-77
2023/03/16 11:32:02;;;;;;;8.67;2.40;;;;;;;;;;4962153;28;20124;-75
2023/03/16 11:34:30;;;;;;;4.47;2.00;;;;;;;;;;4961303;28;20030;-76
2023/03/16 11:37:24;;;;;;;6.10;2.23;;;;;;;;;;4965214;28;20053;-76
2023/03/16 11:40:11;;;;;;;19.50;3.10;;;;;;;;;;4945030;28;20053;-76
2023/03/16 11:42:45;;;;;;;7.57;2.83;;;;;;;;;;4963406;28;20041;-77
2023/03/16 11:45:10;;;;;;;10.53;2.97;;;;;;;;;;4964799;28;20034;-75
2023/03/16 11:47:54;;;;;;;8.77;2.50;;;;;;;;;;4967371;28;20027;-77
2023/03/16 11:50:48;;;;;;;6.70;1.80;;;;;;;;;;4971983;28;20046;-76
2023/03/16 11:53:35;;;;;;;11.37;2.30;;;;;;;;;;4966499;28;20204;-76
2023/03/16 11:56:25;;;;;;;8.37;2.80;;;;;;;;;;4971245;28;20043;-78
2023/03/16 11:59:06;;;;;;;39.70;5.80;;;;;;;;;;4972187;28;20177;-75
2023/03/16 12:01:38;;;;;;;3.83;1.60;;;;;;;;;;4974101;28;20031;-76
2023/03/16 12:04:32;;;;;;;5.85;1.90;;;;;;;;;;4973691;28;20026;-77
2023/03/16 12:07:08;;;;;;;10.90;2.10;;;;;;;;;;4967674;28;20051;-76
2023/03/16 12:09:45;;;;;;;12.27;2.20;;;;;;;;;;4970785;28;20247;-76
2023/03/16 12:12:15;;;;;;;3.47;1.97;;;;;;;;;;4973172;28;20038;-77
2023/03/16 12:14:52;;;;;;;7.63;2.73;;;;;;;;;;4977415;28;20056;-76
2023/03/16 12:17:29;;;;;;;11.68;4.35;;;;;;;;;;4984203;28;20085;-76
2023/03/16 12:20:03;;;;;;;7.27;2.23;;;;;;;;;;4969385;28;20031;-79
2023/03/16 12:23:01;;;;;;;6.60;2.42;;;;;;;;;;4970903;28;20045;-77
2023/03/16 12:25:36;;;;;;;6.45;3.00;;;;;;;;;;4968824;28;20073;-76
2023/03/16 12:28:10;;;;;;;10.55;2.70;;;;;;;;;;4983656;28;20037;-76
2023/03/16 12:30:44;;;;;;;6.57;2.50;;;;;;;;;;4969591;28;20041;-78
2023/03/16 12:33:17;;;;;;;9.57;2.20;;;;;;;;;;4961809;28;20042;-74
2023/03/16 12:36:02;;;;;;;6.75;1.42;;;;;;;;;;4974216;28;20118;-76
2023/03/16 12:38:34;;;;;;;6.25;1.88;;;;;;;;;;4968073;28;20018;-78
2023/03/16 12:41:26;;;;;;;3.35;1.40;;;;;;;;;;4968816;28;20023;-76
2023/03/16 12:44:13;;;;;;;2.78;1.52;;;;;;;;;;4934687;28;20520;-78
2023/03/16 12:46:55;;;;;;;6.00;2.30;;;;;;;;;;4973904;28;20053;-78
2023/03/16 12:49:24;;;;;;;4.90;1.85;;;;;;;;;;4970938;28;20054;-79
2023/03/16 12:52:01;;;;;;;11.95;2.53;;;;;;;;;;4970659;28;20062;-77
2023/03/16 12:54:28;;;;;;;4.32;1.98;;;;;;;;;;4969893;28;20046;-75
2023/03/16 12:57:01;;;;;;;11.10;2.50;;;;;;;;;;4969033;28;20027;-75
2023/03/16 12:59:56;;;;;;;6.93;2.50;;;;;;;;;;4972228;28;20050;-80
2023/03/16 13:02:30;;;;;;;9.90;3.25;;;;;;;;;;4970259;28;20030;-75
2023/03/16 13:05:08;;;;;;;8.02;2.25;;;;;;;;;;4968875;28;20065;-75
2023/03/16 13:07:34;;;;;;;4.30;2.35;;;;;;;;;;4966645;28;20094;-77
2023/03/16 13:10:12;;;;;;;8.18;2.40;;;;;;;;;;4967122;28;20037;-75
2023/03/16 13:12:40;;;;;;;5.85;2.03;;;;;;;;;;4968004;28;20445;-77
2023/03/16 13:15:25;;;;;;;6.25;2.50;;;;;;;;;;4960936;28;20490;-76
2023/03/16 13:18:09;;;;;;;6.13;3.20;;;;;;;;;;4967112;28;20054;-76
2023/03/16 13:21:03;;;;;;;4.95;2.58;;;;;;;;;;4979397;28;20019;-78
2023/03/16 13:23:56;;;;;;;16.58;4.40;;;;;;;;;;4970235;28;20049;-79
2023/03/16 13:26:37;;;;;;;10.52;2.80;;;;;;;;;;4967117;28;20038;-79
2023/03/16 13:29:29;;;;;;;13.48;2.45;;;;;;;;;;4958132;28;20038;-82
2023/03/16 13:32:00;;;;;;;;;;;;;;;;;;4965625;28;20043;-78
2023/03/16 13:34:32;;;;;;;5.25;2.30;;;;;;;;;;4978223;28;20263;-77
2023/03/16 13:37:00;;;;;;;9.45;3.65;;;;;;;;;;4965681;28;20074;-77
2023/03/16 13:39:33;;;;;;;9.77;2.55;;;;;;;;;;4981913;28;20035;-76
2023/03/16 13:42:13;;;;;;;10.23;2.80;;;;;;;;;;4966235;28;20467;-79
2023/03/16 13:44:41;;;;;;;6.45;2.30;;;;;;;;;;4964633;28;20114;-78
2023/03/16 13:47:12;;;;;;;3.15;1.90;;;;;;;;;;4966390;28;20035;-76
2023/03/16 13:49:56;;;;;;;7.35;2.95;;;;;;;;;;4950621;28;20039;-77
2023/03/16 13:52:30;;;;;;;25.77;3.28;;;;;;;;;;4970012;28;20049;-79
2023/03/16 13:55:00;;;;;;;4.60;2.05;;;;;;;;;;4969191;28;20042;-78
2023/03/16 13:57:29;;;;;;;9.60;2.60;;;;;;;;;;4969481;28;20497;-80
2023/03/16 14:00:19;;;;;;;8.15;2.90;;;;;;;;;;4969644;28;20026;-80
2023/03/16 14:02:50;;;;;;;15.80;3.47;;;;;;;;;;4972961;28;20163;-76
2023/03/16 14:05:26;;;;;;;9.82;3.40;;;;;;;;;;4978058;28;20090;-78
2023/03/16 14:07:54;;;;;;;7.18;2.90;;;;;;;;;;4988589;28;20031;-77
2023/03/16 14:10:33;;;;;;;10.35;3.22;;;;;;;;;;4972323;28;20137;-79
2023/03/16 14:13:20;;;;;;;8.20;3.20;;;;;;;;;;4995908;28;20031;-80
2023/03/16 14:15:47;;;;;;;7.28;2.65;;;;;;;;;;4965896;28;20045;-80
2023/03/16 14:18:21;;;;;;;7.35;3.17;;;;;;;;;;4967960;28;20042;-77
2023/03/16 14:20:54;;;;;;;7.80;3.05;;;;;;;;;;4962900;28;20106;-81
2023/03/16 14:23:23;;;;;;;13.43;2.67;;;;;;;;;;4948748;28;20038;-76
2023/03/16 14:25:54;;;;;;;6.75;2.53;;;;;;;;;;4967447;28;20065;-79
2023/03/16 14:28:28;;;;;;;5.35;2.13;;;;;;;;;;4964691;28;20515;-77
2023/03/16 14:31:04;;;;;;;6.88;2.58;;;;;;;;;;4965761;28;20039;-80
2023/03/16 14:33:33;;;;;;;13.82;3.35;;;;;;;;;;4966439;28;20425;-78
2023/03/16 14:36:09;;;;;;;7.72;2.95;;;;;;;;;;4968144;28;20055;-76
2023/03/16 14:38:43;;;;;;;5.30;2.58;;;;;;;;;;4963705;28;20491;-81
2023/03/16 14:41:22;;;;;;;6.45;2.72;;;;;;;;;;4967777;28;20031;-79
2023/03/16 14:43:54;;;;;;;7.95;2.45;;;;;;;;;;4967495;28;20085;-77
2023/03/16 14:46:28;;;;;;;5.13;2.40;;;;;;;;;;4966491;28;20058;-79
2023/03/16 14:49:09;;;;;;;6.03;3.00;;;;;;;;;;4965961;28;20042;-76
2023/03/16 14:51:40;;;;;;;7.57;2.47;;;;;;;;;;4965671;28;20097;-76